Saint Poelten, Austria
Current Conditions -  °F | °C
As of 10:50 PM on Monday 20 Oct 2014 (Local Time) from LOXT Reporting Station
Rain Showers Rain Showers  
Wind Chill: 59°   Ceiling: 6000
Heat Index: 59°   Visibility: 9mi
Dew Point: 59°   Wind: 5mph
Humidity: 100%   Direction: 340°NNW
Pressure: 29.97"   Gusts: NA
Location:  48.2°N, 15.62°E
Report Text: LOXT 202050Z 34004KT 15KM -SHRA FEW025SC SCT040SC BKN060SC 15/15 Q1015 RMK OVC
Loading
Personal Weather Stations






























Interactive Weather Map
Tropical Storm Tracking
New forecast layout! Learn more

10-Day Weather Forecast

Advertisements
Track Severe Weather on mobile